Terminal Aerodrome Forecast
Issued by NWS Charleston, WV

Current Version | Previous Version | Graphics & Text | Print | Product List | Glossary On
Versions: 1 2 3 4 5 6 7 8 9 10 11 12 13 14 15 16 17 18 19 20 21 22 23 24 25 26
261
FTUS41 KRLX 062116 AAA
TAFCRW
TAF AMD
KCRW 062116Z 0621/0718 14006KT P6SM -RA BKN030 OVC060
     FM070100 23007KT P6SM -RA OVC012
     FM070500 28007KT P6SM BKN011
     FM071600 VRB03KT P6SM BKN060=

USA.gov is the U.S. government's official web portal to all federal, state and local government web resources and services.